Time;durP1;ratioP1;P1;durP2;ratioP2;P2;SDS_P1;SDS_P2;PMS_P1;PMS_P2;Temp;Humidity;BMP_temperature;BMP_pressure;BME280_temperature;BME280_humidity;BME280_pressure;Samples;Min_cycle;Max_cycle;Signal;HPM_P1;HPM_P2
2022/05/06 00:01:30;;;;;;;;;;;16.40;80.20;;;;;;4958485;29;19972;-63
2022/05/06 00:03:55;;;;;;;;;;;16.40;81.30;;;;;;4958362;29;20036;-62
2022/05/06 00:06:21;;;;;;;;;;;16.40;81.30;;;;;;4958752;29;19911;-62
2022/05/06 00:08:47;;;;;;;;;;;16.30;81.30;;;;;;4958620;29;20001;-62
2022/05/06 00:11:13;;;;;;;;;;;16.40;80.50;;;;;;4958607;29;20034;-62
2022/05/06 00:13:38;;;;;;;;;;;16.40;79.70;;;;;;4958589;29;19910;-62
2022/05/06 00:16:04;;;;;;;;;;;16.40;79.60;;;;;;4958573;29;19910;-63
2022/05/06 00:18:31;;;;;;;;;;;16.40;80.60;;;;;;4957985;29;19918;-62
2022/05/06 00:20:59;;;;;;;;;;;16.30;81.80;;;;;;4958403;29;19932;-63
2022/05/06 00:23:25;;;;;;;;;;;16.20;82.10;;;;;;4958403;29;19964;-62
2022/05/06 00:25:50;;;;;;;;;;;16.20;82.30;;;;;;4958465;29;19941;-63
2022/05/06 00:28:16;;;;;;;;;;;16.20;82.00;;;;;;4958226;29;19957;-62
2022/05/06 00:30:42;;;;;;;;;;;16.30;82.00;;;;;;4958246;29;20371;-62
2022/05/06 00:33:09;;;;;;;;;;;16.20;82.50;;;;;;4958262;29;19917;-62
2022/05/06 00:35:38;;;;;;;;;;;16.20;82.90;;;;;;4958050;29;19938;-63
2022/05/06 00:38:04;;;;;;;;;;;16.30;81.70;;;;;;4960565;29;19911;-62
2022/05/06 00:40:29;;;;;;;;;;;16.30;82.50;;;;;;4963375;28;19910;-64
2022/05/06 00:42:56;;;;;;;;;;;16.20;83.10;;;;;;4963137;29;19989;-63
2022/05/06 00:45:22;;;;;;;;;;;16.20;83.40;;;;;;4962587;29;19951;-64
2022/05/06 00:47:48;;;;;;;;;;;16.20;82.70;;;;;;4961346;29;19911;-64
2022/05/06 00:50:14;;;;;;;;;;;16.10;83.00;;;;;;4958883;29;19918;-62
2022/05/06 00:52:39;;;;;;;;;;;16.10;83.00;;;;;;4958222;29;20347;-62
2022/05/06 00:55:06;;;;;;;;;;;16.10;83.50;;;;;;4958045;29;19921;-63
2022/05/06 00:57:31;;;;;;;;;;;16.10;83.80;;;;;;4957701;29;20355;-62
2022/05/06 01:00:18;;;;;;;;;;;16.10;84.20;;;;;;4958019;29;19914;-62
2022/05/06 01:02:44;;;;;;;;;;;16.00;84.50;;;;;;4942661;29;19926;-62
2022/05/06 01:05:11;;;;;;;;;;;16.00;84.70;;;;;;4957775;29;20382;-62
2022/05/06 01:07:37;;;;;;;;;;;16.00;84.20;;;;;;4957592;29;19914;-64
2022/05/06 01:10:03;;;;;;;;;;;16.00;84.30;;;;;;4957449;29;19917;-61
2022/05/06 01:12:29;;;;;;;;;;;16.00;85.20;;;;;;4957361;29;20009;-62
2022/05/06 01:14:54;;;;;;;;;;;16.00;84.80;;;;;;4957434;29;20278;-62
2022/05/06 01:17:20;;;;;;;;;;;15.90;84.90;;;;;;4957698;29;19911;-64
2022/05/06 01:19:45;;;;;;;;;;;15.90;85.30;;;;;;4957268;29;19914;-62
2022/05/06 01:22:11;;;;;;;;;;;15.90;85.20;;;;;;4940066;29;19919;-62
2022/05/06 01:24:37;;;;;;;;;;;16.00;84.90;;;;;;4957589;29;19917;-64
2022/05/06 01:27:04;;;;;;;;;;;16.00;85.10;;;;;;4957442;29;19910;-62
2022/05/06 01:29:32;;;;;;;;;;;15.90;85.10;;;;;;4957038;29;19915;-62
2022/05/06 01:31:59;;;;;;;;;;;15.90;85.20;;;;;;4957324;29;20279;-62
2022/05/06 01:34:27;;;;;;;;;;;15.90;84.60;;;;;;4957853;29;19988;-62
2022/05/06 01:36:54;;;;;;;;;;;15.90;84.20;;;;;;4957930;29;19911;-62
2022/05/06 01:39:23;;;;;;;;;;;15.90;84.90;;;;;;4957586;29;19919;-64
2022/05/06 01:41:51;;;;;;;;;;;15.80;85.60;;;;;;4957382;29;19918;-62
2022/05/06 01:44:18;;;;;;;;;;;15.80;85.60;;;;;;4957083;29;20367;-62
2022/05/06 01:46:44;;;;;;;;;;;15.80;86.20;;;;;;4956978;29;20001;-62
2022/05/06 01:49:10;;;;;;;;;;;15.80;86.10;;;;;;4956577;29;19997;-62
2022/05/06 01:51:38;;;;;;;;;;;15.80;85.80;;;;;;4957231;29;19914;-62
2022/05/06 01:54:04;;;;;;;;;;;15.90;85.70;;;;;;4956682;28;19950;-61
2022/05/06 01:56:29;;;;;;;;;;;15.80;85.70;;;;;;4956613;29;19952;-62
2022/05/06 01:58:55;;;;;;;;;;;15.70;86.20;;;;;;4956822;29;20309;-61
2022/05/06 02:01:20;;;;;;;;;;;15.80;86.10;;;;;;4956646;29;19965;-63
2022/05/06 02:06:30;;;;;;;;;;;15.80;86.20;;;;;;4956436;29;19964;-63
2022/05/06 02:08:56;;;;;;;;;;;15.80;86.20;;;;;;4956194;29;19946;-63
2022/05/06 02:11:21;;;;;;;;;;;15.80;86.40;;;;;;4956925;29;19910;-62
2022/05/06 02:13:47;;;;;;;;;;;15.80;86.50;;;;;;4956343;29;19914;-61
2022/05/06 02:16:12;;;;;;;;;;;15.80;86.50;;;;;;4956422;29;19910;-62
2022/05/06 02:18:39;;;;;;;;;;;15.80;86.60;;;;;;4956081;29;19981;-63
2022/05/06 02:21:04;;;;;;;;;;;15.80;86.60;;;;;;4956227;29;20294;-63
2022/05/06 02:23:30;;;;;;;;;;;15.80;86.80;;;;;;4956027;29;19923;-62
2022/05/06 02:25:56;;;;;;;;;;;15.70;86.70;;;;;;4955946;29;19944;-61
2022/05/06 02:28:21;;;;;;;;;;;15.70;87.10;;;;;;4956242;29;19917;-63
2022/05/06 02:33:31;;;;;;;;;;;15.70;87.10;;;;;;4956984;29;19918;-62
2022/05/06 02:35:58;;;;;;;;;;;15.70;87.20;;;;;;4957010;29;20243;-62
2022/05/06 02:38:24;;;;;;;;;;;15.70;87.20;;;;;;4956739;29;19914;-62
2022/05/06 02:40:49;;;;;;;;;;;15.80;86.60;;;;;;4956724;29;19938;-61
2022/05/06 02:43:15;;;;;;;;;;;15.90;85.10;;;;;;4955817;29;19910;-61
2022/05/06 02:45:41;;;;;;;;;;;15.90;84.90;;;;;;4955937;29;20382;-61
2022/05/06 02:48:07;;;;;;;;;;;15.90;84.40;;;;;;4955599;29;19911;-62
2022/05/06 02:50:32;;;;;;;;;;;15.80;84.90;;;;;;4955876;29;19910;-62
2022/05/06 02:52:58;;;;;;;;;;;16.00;82.30;;;;;;4955676;29;19910;-62
2022/05/06 02:55:24;;;;;;;;;;;16.10;83.00;;;;;;4955928;29;19997;-61
2022/05/06 02:57:50;;;;;;;;;;;16.10;81.90;;;;;;4955853;29;19961;-62
2022/05/06 03:00:16;;;;;;;;;;;16.00;83.20;;;;;;4955638;29;19918;-61
2022/05/06 03:02:41;;;;;;;;;;;15.90;84.60;;;;;;4956335;29;19977;-61
2022/05/06 03:05:07;;;;;;;;;;;15.80;85.70;;;;;;4955467;28;19953;-61
2022/05/06 03:07:33;;;;;;;;;;;15.70;85.60;;;;;;4955767;29;20355;-63
2022/05/06 03:09:58;;;;;;;;;;;15.80;85.40;;;;;;4955524;29;19910;-62
2022/05/06 03:12:26;;;;;;;;;;;15.80;86.00;;;;;;4955841;29;19911;-64
2022/05/06 03:14:52;;;;;;;;;;;15.70;85.40;;;;;;4955724;29;20045;-63
2022/05/06 03:17:17;;;;;;;;;;;15.70;85.90;;;;;;4955579;29;19985;-63
2022/05/06 03:19:43;;;;;;;;;;;15.70;84.70;;;;;;4955283;29;19917;-62
2022/05/06 03:22:08;;;;;;;;;;;15.70;85.70;;;;;;4956720;29;19923;-62
2022/05/06 03:24:34;;;;;;;;;;;15.70;83.70;;;;;;4961122;29;19914;-63
2022/05/06 03:27:00;;;;;;;;;;;15.80;83.50;;;;;;4955857;29;19918;-63
2022/05/06 03:29:25;;;;;;;;;;;15.70;84.30;;;;;;4955301;29;20296;-61
2022/05/06 03:31:52;;;;;;;;;;;15.80;82.90;;;;;;4955489;29;19981;-62
2022/05/06 03:34:19;;;;;;;;;;;15.80;82.90;;;;;;4955596;29;20397;-62
2022/05/06 03:36:45;;;;;;;;;;;15.70;84.10;;;;;;4955104;29;20268;-61
2022/05/06 03:39:11;;;;;;;;;;;15.70;84.10;;;;;;4955266;29;19914;-61
2022/05/06 03:41:37;;;;;;;;;;;15.60;85.30;;;;;;4955171;29;19919;-61
2022/05/06 03:44:03;;;;;;;;;;;15.60;85.60;;;;;;4955458;29;19966;-63
2022/05/06 03:46:28;;;;;;;;;;;15.70;83.40;;;;;;4955242;29;19917;-63
2022/05/06 03:48:55;;;;;;;;;;;15.70;83.00;;;;;;4955172;29;20005;-63
2022/05/06 03:51:20;;;;;;;;;;;15.80;82.10;;;;;;4955138;29;19915;-63
2022/05/06 03:53:53;;;;;;;;;;;15.70;81.90;;;;;;4955423;29;19918;-63
2022/05/06 03:56:19;;;;;;;;;;;15.80;81.10;;;;;;4955061;29;19917;-62
2022/05/06 03:58:45;;;;;;;;;;;16.00;79.20;;;;;;4955303;29;20240;-62
2022/05/06 04:01:11;;;;;;;;;;;16.00;78.30;;;;;;4955294;29;19922;-62
2022/05/06 04:03:36;;;;;;;;;;;16.10;79.00;;;;;;4955025;29;19929;-62
2022/05/06 04:06:02;;;;;;;;;;;16.00;79.10;;;;;;4955188;29;19978;-62
2022/05/06 04:08:28;;;;;;;;;;;16.00;79.20;;;;;;4954944;29;20282;-62
2022/05/06 04:10:53;;;;;;;;;;;15.70;79.80;;;;;;4955105;29;20366;-62
2022/05/06 04:13:19;;;;;;;;;;;15.70;79.60;;;;;;4955151;29;20367;-62
2022/05/06 04:15:45;;;;;;;;;;;15.60;81.50;;;;;;4955090;28;20021;-62
2022/05/06 04:18:11;;;;;;;;;;;15.80;80.40;;;;;;4958144;29;20402;-63
2022/05/06 04:23:30;;;;;;;;;;;15.60;80.30;;;;;;4959002;29;19926;-62
2022/05/06 04:25:56;;;;;;;;;;;15.60;80.00;;;;;;4958817;29;20351;-61
2022/05/06 04:28:23;;;;;;;;;;;15.60;80.90;;;;;;4958604;29;20009;-63
2022/05/06 04:30:48;;;;;;;;;;;15.60;80.40;;;;;;4958263;29;20338;-63
2022/05/06 04:33:14;;;;;;;;;;;15.60;80.40;;;;;;4958233;29;19907;-63
2022/05/06 04:35:39;;;;;;;;;;;15.50;80.80;;;;;;4958091;29;20339;-65
2022/05/06 04:38:05;;;;;;;;;;;15.50;80.60;;;;;;4958410;29;20363;-62
2022/05/06 04:40:31;;;;;;;;;;;15.50;80.30;;;;;;4957950;29;19914;-63
2022/05/06 04:42:56;;;;;;;;;;;15.70;80.60;;;;;;4958465;29;19918;-63
2022/05/06 04:45:22;;;;;;;;;;;15.50;80.20;;;;;;4958193;29;19922;-63
2022/05/06 04:47:47;;;;;;;;;;;15.50;80.70;;;;;;4958335;29;19918;-63
2022/05/06 04:50:13;;;;;;;;;;;15.50;79.90;;;;;;4957846;29;19919;-64
2022/05/06 04:52:38;;;;;;;;;;;15.40;80.80;;;;;;4958310;29;20001;-62
2022/05/06 04:55:04;;;;;;;;;;;15.40;80.40;;;;;;4958283;29;19997;-62
2022/05/06 04:57:29;;;;;;;;;;;15.40;80.40;;;;;;4957924;29;19910;-63
2022/05/06 04:59:55;;;;;;;;;;;15.40;80.30;;;;;;4957537;29;19915;-64
2022/05/06 05:02:21;;;;;;;;;;;15.50;79.70;;;;;;4957443;29;19919;-62
2022/05/06 05:04:48;;;;;;;;;;;15.40;79.50;;;;;;4957732;29;19954;-63
2022/05/06 05:07:13;;;;;;;;;;;15.30;81.00;;;;;;4957729;29;19938;-64
2022/05/06 05:09:39;;;;;;;;;;;15.40;79.70;;;;;;4957830;29;19911;-63
2022/05/06 05:12:05;;;;;;;;;;;15.40;80.80;;;;;;4957705;29;19937;-63
2022/05/06 05:14:33;;;;;;;;;;;15.40;80.70;;;;;;4957542;29;19914;-63
2022/05/06 05:16:59;;;;;;;;;;;15.30;80.70;;;;;;4957448;29;19914;-63
2022/05/06 05:19:24;;;;;;;;;;;15.30;80.80;;;;;;4957426;29;20363;-62
2022/05/06 05:21:50;;;;;;;;;;;15.30;80.50;;;;;;4957562;29;19988;-63
2022/05/06 05:24:15;;;;;;;;;;;15.40;81.30;;;;;;4957305;29;20405;-63
2022/05/06 05:26:41;;;;;;;;;;;15.40;80.90;;;;;;4957374;29;19911;-60
2022/05/06 05:29:06;;;;;;;;;;;15.30;80.80;;;;;;4959590;28;19953;-61
2022/05/06 05:31:32;;;;;;;;;;;15.20;81.40;;;;;;4965185;29;19965;-61
2022/05/06 05:33:58;;;;;;;;;;;15.30;81.90;;;;;;4963651;29;20349;-61
2022/05/06 05:36:23;;;;;;;;;;;15.40;80.40;;;;;;4964961;29;19910;-62
2022/05/06 05:38:49;;;;;;;;;;;15.40;80.60;;;;;;4957308;29;19910;-63
2022/05/06 05:41:14;;;;;;;;;;;15.30;81.60;;;;;;4957385;29;19926;-61
2022/05/06 05:49:08;;;;;;;;;;;15.30;81.40;;;;;;4957229;29;19918;-64
2022/05/06 05:51:33;;;;;;;;;;;15.40;80.90;;;;;;4956802;29;19911;-65
2022/05/06 05:53:59;;;;;;;;;;;15.30;81.40;;;;;;4956843;29;19911;-61
2022/05/06 05:56:25;;;;;;;;;;;15.30;81.70;;;;;;4956770;29;19911;-62
2022/05/06 05:58:51;;;;;;;;;;;15.30;80.80;;;;;;4956674;29;19995;-59
2022/05/06 06:01:18;;;;;;;;;;;15.40;81.40;;;;;;4956561;29;20001;-59
2022/05/06 06:03:43;;;;;;;;;;;15.30;81.70;;;;;;4956469;29;19922;-64
2022/05/06 06:06:09;;;;;;;;;;;15.50;81.40;;;;;;4955760;29;20413;-65
2022/05/06 06:08:35;;;;;;;;;;;15.70;81.10;;;;;;4956013;29;20389;-68
2022/05/06 06:11:01;;;;;;;;;;;15.80;79.90;;;;;;4955915;29;19957;-65
2022/05/06 06:13:28;;;;;;;;;;;15.80;79.70;;;;;;4956483;29;19911;-64
2022/05/06 06:15:53;;;;;;;;;;;15.80;79.90;;;;;;4956196;29;19935;-65
2022/05/06 06:18:24;;;;;;;;;;;15.80;78.90;;;;;;4938663;29;19910;-63
2022/05/06 06:20:49;;;;;;;;;;;15.80;79.90;;;;;;4956243;29;19910;-65
2022/05/06 06:23:15;;;;;;;;;;;15.90;79.10;;;;;;4956255;29;20390;-63
2022/05/06 06:25:41;;;;;;;;;;;15.90;79.10;;;;;;4956542;29;19942;-66
2022/05/06 06:28:06;;;;;;;;;;;15.90;79.30;;;;;;4956145;29;19915;-63
2022/05/06 06:30:32;;;;;;;;;;;15.70;79.50;;;;;;4953831;29;19915;-63
2022/05/06 06:32:58;;;;;;;;;;;15.80;79.90;;;;;;4948100;29;20282;-58
2022/05/06 06:35:23;;;;;;;;;;;15.70;80.10;;;;;;4951750;29;19911;-58
2022/05/06 06:37:49;;;;;;;;;;;15.70;80.00;;;;;;4958747;29;19922;-58
2022/05/06 06:40:14;;;;;;;;;;;15.60;79.80;;;;;;4949865;28;20355;-59
2022/05/06 06:42:42;;;;;;;;;;;15.50;79.70;;;;;;4951002;29;19918;-57
2022/05/06 06:45:09;;;;;;;;;;;15.50;80.50;;;;;;4950577;29;19923;-61
2022/05/06 06:47:35;;;;;;;;;;;15.40;80.40;;;;;;4950344;29;19915;-60
2022/05/06 06:50:01;;;;;;;;;;;15.40;80.40;;;;;;4946471;29;20359;-60
2022/05/06 06:52:27;;;;;;;;;;;15.40;79.40;;;;;;4945977;29;20406;-60
2022/05/06 06:54:52;;;;;;;;;;;15.40;79.50;;;;;;4944682;29;19922;-57
2022/05/06 06:57:18;;;;;;;;;;;15.50;79.20;;;;;;4946709;29;20010;-62
2022/05/06 06:59:43;;;;;;;;;;;15.50;79.50;;;;;;4948208;29;20021;-62
2022/05/06 07:02:09;;;;;;;;;;;15.50;79.80;;;;;;4943503;29;19926;-60
2022/05/06 07:04:35;;;;;;;;;;;15.60;79.20;;;;;;4947815;29;19922;-67
2022/05/06 07:12:29;;;;;;;;;;;15.70;78.70;;;;;;4932621;29;20315;-76
2022/05/06 07:14:55;;;;;;;;;;;15.70;79.50;;;;;;4936498;29;19998;-74
2022/05/06 07:17:21;;;;;;;;;;;15.80;78.80;;;;;;4933299;29;19937;-73
2022/05/06 07:19:48;;;;;;;;;;;15.90;78.10;;;;;;4936076;29;20263;-71
2022/05/06 07:22:13;;;;;;;;;;;15.90;78.60;;;;;;4936326;29;19926;-74
2022/05/06 07:24:39;;;;;;;;;;;15.90;79.20;;;;;;4936098;29;19911;-74
2022/05/06 07:27:05;;;;;;;;;;;16.00;78.70;;;;;;4936318;29;19917;-72
2022/05/06 07:29:33;;;;;;;;;;;16.00;76.80;;;;;;4936259;29;20289;-75
2022/05/06 07:31:59;;;;;;;;;;;16.00;77.60;;;;;;4936127;29;20247;-74
2022/05/06 07:34:24;;;;;;;;;;;16.00;76.60;;;;;;4936025;29;19911;-73
2022/05/06 07:36:50;;;;;;;;;;;16.00;77.90;;;;;;4936199;29;20314;-78
2022/05/06 07:39:15;;;;;;;;;;;16.10;78.10;;;;;;4936756;29;20359;-72
2022/05/06 07:41:42;;;;;;;;;;;16.10;78.20;;;;;;4936513;29;19982;-70
2022/05/06 07:44:08;;;;;;;;;;;16.10;78.30;;;;;;4937287;29;20369;-72
2022/05/06 07:46:34;;;;;;;;;;;16.10;79.30;;;;;;4936475;29;19997;-71
2022/05/06 07:49:01;;;;;;;;;;;16.20;79.20;;;;;;4935364;29;19915;-74
2022/05/06 07:51:27;;;;;;;;;;;16.20;78.00;;;;;;4937406;29;19911;-73
2022/05/06 07:53:55;;;;;;;;;;;16.20;77.80;;;;;;4938843;29;19910;-71
2022/05/06 07:56:21;;;;;;;;;;;16.20;77.90;;;;;;4939370;29;20370;-68
2022/05/06 07:58:47;;;;;;;;;;;16.20;78.60;;;;;;4939694;29;19918;-69
2022/05/06 08:01:13;;;;;;;;;;;16.10;78.90;;;;;;4939570;29;19911;-71
2022/05/06 08:06:23;;;;;;;;;;;16.10;79.10;;;;;;4939610;29;20058;-69
2022/05/06 08:08:49;;;;;;;;;;;16.20;78.50;;;;;;4939378;29;20042;-72
2022/05/06 08:11:14;;;;;;;;;;;16.20;78.00;;;;;;4939466;29;19922;-76
2022/05/06 08:13:40;;;;;;;;;;;16.20;79.10;;;;;;4939463;29;19915;-74
2022/05/06 08:16:05;;;;;;;;;;;16.30;78.90;;;;;;4939109;29;19953;-74
2022/05/06 08:18:31;;;;;;;;;;;16.30;78.70;;;;;;4939207;29;19985;-71
2022/05/06 08:20:57;;;;;;;;;;;16.30;78.70;;;;;;4939114;29;19911;-71
2022/05/06 08:23:23;;;;;;;;;;;16.40;78.50;;;;;;4939141;29;19923;-69
2022/05/06 08:25:49;;;;;;;;;;;16.40;79.00;;;;;;4938991;29;20382;-63
2022/05/06 08:28:15;;;;;;;;;;;16.40;78.60;;;;;;4939125;29;20268;-65
2022/05/06 08:30:41;;;;;;;;;;;16.70;79.10;;;;;;4938779;29;20418;-69
2022/05/06 08:33:06;;;;;;;;;;;16.70;78.50;;;;;;4939351;29;19911;-67
2022/05/06 08:35:32;;;;;;;;;;;16.70;77.60;;;;;;4938733;29;19911;-70
2022/05/06 08:37:58;;;;;;;;;;;16.50;78.20;;;;;;4938804;29;19911;-68
2022/05/06 08:40:26;;;;;;;;;;;16.60;78.10;;;;;;4938460;29;20274;-67
2022/05/06 08:42:52;;;;;;;;;;;16.60;78.50;;;;;;4938661;29;19919;-74
2022/05/06 08:50:55;;;;;;;;;;;16.70;77.80;;;;;;4938584;29;19969;-67
2022/05/06 08:53:31;;;;;;;;;;;16.70;75.30;;;;;;4938167;29;20359;-68
2022/05/06 08:55:58;;;;;;;;;;;16.80;75.80;;;;;;4938539;29;19918;-71
2022/05/06 08:58:24;;;;;;;;;;;16.80;74.30;;;;;;4938471;29;20028;-67
2022/05/06 09:00:50;;;;;;;;;;;16.80;75.00;;;;;;4937950;29;20096;-64
2022/05/06 09:03:17;;;;;;;;;;;16.80;74.90;;;;;;4937636;29;19919;-68
2022/05/06 09:05:49;;;;;;;;;;;17.10;75.60;;;;;;4938700;29;19962;-66
2022/05/06 09:08:15;;;;;;;;;;;17.20;74.10;;;;;;4937993;29;19923;-68
2022/05/06 09:10:40;;;;;;;;;;;17.00;72.80;;;;;;4920767;29;20271;-71
2022/05/06 09:13:06;;;;;;;;;;;17.20;73.50;;;;;;4938188;29;19911;-66
2022/05/06 09:18:23;;;;;;;;;;;17.20;72.90;;;;;;4938343;29;20298;-71
2022/05/06 09:20:50;;;;;;;;;;;17.20;72.70;;;;;;4938152;29;19911;-61
2022/05/06 09:23:24;;;;;;;;;;;17.10;72.40;;;;;;4938213;29;19962;-69
2022/05/06 09:25:51;;;;;;;;;;;17.20;71.60;;;;;;4938060;29;20394;-67
2022/05/06 09:28:24;;;;;;;;;;;17.20;73.20;;;;;;4937759;29;19911;-68
2022/05/06 09:30:59;;;;;;;;;;;17.20;72.40;;;;;;4937784;29;20367;-66
2022/05/06 09:33:31;;;;;;;;;;;17.10;72.50;;;;;;4937729;29;20271;-68
2022/05/06 09:35:57;;;;;;;;;;;17.10;72.30;;;;;;4937840;29;19918;-64
2022/05/06 09:38:24;;;;;;;;;;;17.30;73.60;;;;;;4937497;29;19911;-69
2022/05/06 09:40:50;;;;;;;;;;;17.30;72.20;;;;;;4937778;29;19970;-71
2022/05/06 09:43:17;;;;;;;;;;;17.30;71.40;;;;;;4937413;29;20260;-68
2022/05/06 09:45:43;;;;;;;;;;;17.30;72.10;;;;;;4937393;29;19911;-69
2022/05/06 09:48:13;;;;;;;;;;;17.20;71.60;;;;;;4937560;29;19915;-70
2022/05/06 09:50:39;;;;;;;;;;;17.20;72.40;;;;;;4937758;29;19938;-65
2022/05/06 09:53:08;;;;;;;;;;;17.20;72.70;;;;;;4937260;29;19911;-65
2022/05/06 09:55:38;;;;;;;;;;;17.10;72.30;;;;;;4937136;29;19950;-62
2022/05/06 09:58:04;;;;;;;;;;;17.10;73.40;;;;;;4937487;29;19960;-68
2022/05/06 10:00:29;;;;;;;;;;;17.10;73.40;;;;;;4937020;29;19950;-67
2022/05/06 10:02:56;;;;;;;;;;;17.20;73.80;;;;;;4937225;29;19974;-62
2022/05/06 10:05:22;;;;;;;;;;;17.20;73.50;;;;;;4937458;29;19911;-67
2022/05/06 10:07:49;;;;;;;;;;;17.10;71.60;;;;;;4936959;29;20014;-66
2022/05/06 10:10:25;;;;;;;;;;;17.20;72.50;;;;;;4936660;29;19919;-71
2022/05/06 10:12:55;;;;;;;;;;;17.20;72.70;;;;;;4932861;29;19986;-66
2022/05/06 10:15:22;;;;;;;;;;;17.20;71.60;;;;;;4937175;29;19953;-70
2022/05/06 10:17:55;;;;;;;;;;;17.30;72.30;;;;;;4936997;29;20371;-63
2022/05/06 10:20:36;;;;;;;;;;;17.30;71.30;;;;;;4936561;29;19919;-63
2022/05/06 10:23:02;;;;;;;;;;;17.30;72.00;;;;;;4936869;29;19919;-65
2022/05/06 10:25:40;;;;;;;;;;;17.30;70.20;;;;;;4937163;29;19911;-64
2022/05/06 10:34:05;;;;;;;;;;;17.70;71.10;;;;;;4937097;29;20270;-65
2022/05/06 10:36:44;;;;;;;;;;;17.90;71.40;;;;;;4937376;29;19915;-70
2022/05/06 10:39:25;;;;;;;;;;;18.00;68.30;;;;;;4936779;29;20009;-62
2022/05/06 10:42:12;;;;;;;;;;;18.10;69.90;;;;;;4936848;29;19923;-62
2022/05/06 10:44:38;;;;;;;;;;;18.10;74.10;;;;;;4936585;29;20334;-59
2022/05/06 10:47:23;;;;;;;;;;;18.40;74.60;;;;;;4936855;29;19989;-66
2022/05/06 10:49:50;;;;;;;;;;;18.40;70.00;;;;;;4916554;29;20327;-63
2022/05/06 10:52:15;;;;;;;;;;;18.40;68.60;;;;;;4916694;29;20280;-70
2022/05/06 10:54:47;;;;;;;;;;;18.40;69.20;;;;;;4917011;29;19911;-64
2022/05/06 10:57:13;;;;;;;;;;;18.40;69.00;;;;;;4916540;29;19918;-71
2022/05/06 10:59:52;;;;;;;;;;;18.40;70.30;;;;;;4917291;29;20287;-63
2022/05/06 11:02:21;;;;;;;;;;;18.30;70.20;;;;;;4916647;29;20287;-66
2022/05/06 11:04:50;;;;;;;;;;;18.40;69.70;;;;;;4916714;29;19965;-67
2022/05/06 11:07:17;;;;;;;;;;;18.40;68.80;;;;;;4916504;29;19973;-69
2022/05/06 11:09:43;;;;;;;;;;;18.20;69.20;;;;;;4899625;29;20014;-65
2022/05/06 11:12:08;;;;;;;;;;;18.20;70.00;;;;;;4899434;29;20503;-67
2022/05/06 11:14:34;;;;;;;;;;;18.40;69.20;;;;;;4916789;29;20386;-62
2022/05/06 11:17:15;;;;;;;;;;;18.50;68.20;;;;;;4916498;29;19915;-63
2022/05/06 11:19:41;;;;;;;;;;;18.50;67.40;;;;;;4916556;29;19912;-65
2022/05/06 11:22:10;;;;;;;;;;;18.50;67.00;;;;;;4916459;29;19926;-67
2022/05/06 11:24:35;;;;;;;;;;;18.50;67.20;;;;;;4899913;29;19934;-64
2022/05/06 11:27:17;;;;;;;;;;;18.40;67.40;;;;;;4919803;29;20367;-70
2022/05/06 11:29:49;;;;;;;;;;;18.40;69.40;;;;;;4920591;29;19911;-69
2022/05/06 11:32:17;;;;;;;;;;;18.50;68.80;;;;;;4919847;29;22362;-71
2022/05/06 11:34:47;;;;;;;;;;;18.60;67.30;;;;;;4903396;29;19911;-69
2022/05/06 11:37:20;;;;;;;;;;;18.60;66.90;;;;;;4920289;29;19954;-72
2022/05/06 11:39:46;;;;;;;;;;;18.60;65.90;;;;;;4920358;29;19911;-68
2022/05/06 11:42:21;;;;;;;;;;;18.60;66.50;;;;;;4919834;29;20359;-70
2022/05/06 11:47:40;;;;;;;;;;;18.60;67.50;;;;;;4920317;29;19963;-67
2022/05/06 11:50:06;;;;;;;;;;;18.60;67.90;;;;;;4919716;29;19915;-69
2022/05/06 11:52:32;;;;;;;;;;;18.60;67.90;;;;;;4919277;29;19919;-72
2022/05/06 11:54:58;;;;;;;;;;;18.60;68.50;;;;;;4920079;29;20002;-69
2022/05/06 11:57:24;;;;;;;;;;;18.70;67.80;;;;;;4919793;29;20011;-71
2022/05/06 11:59:50;;;;;;;;;;;18.60;67.80;;;;;;4919304;29;19918;-72
2022/05/06 12:02:15;;;;;;;;;;;18.50;67.00;;;;;;4918936;29;20005;-73
2022/05/06 12:04:41;;;;;;;;;;;18.50;67.20;;;;;;4919102;29;20443;-72
2022/05/06 12:07:06;;;;;;;;;;;18.40;67.80;;;;;;4918791;29;19970;-70
2022/05/06 12:09:41;;;;;;;;;;;18.40;67.80;;;;;;4918955;29;19954;-69
2022/05/06 12:12:10;;;;;;;;;;;18.30;66.90;;;;;;4916587;29;20427;-71
2022/05/06 12:14:37;;;;;;;;;;;18.40;66.20;;;;;;4919284;29;19922;-70
2022/05/06 12:17:04;;;;;;;;;;;18.50;65.80;;;;;;4919178;29;19918;-73
2022/05/06 12:19:43;;;;;;;;;;;18.50;65.40;;;;;;4918642;29;19943;-72
2022/05/06 12:22:13;;;;;;;;;;;18.50;65.80;;;;;;4918257;29;20018;-71
2022/05/06 12:24:42;;;;;;;;;;;18.70;66.50;;;;;;4919215;29;19987;-70
2022/05/06 12:27:08;;;;;;;;;;;18.70;65.00;;;;;;4918901;29;19911;-70
2022/05/06 12:29:40;;;;;;;;;;;18.70;64.80;;;;;;4918433;29;19911;-69
2022/05/06 12:32:06;;;;;;;;;;;18.70;64.10;;;;;;4918736;29;19973;-68
2022/05/06 12:34:33;;;;;;;;;;;18.70;63.20;;;;;;4918591;29;19946;-64
2022/05/06 12:37:14;;;;;;;;;;;18.80;63.70;;;;;;4917793;29;20002;-64
2022/05/06 12:39:50;;;;;;;;;;;18.80;61.70;;;;;;4918470;29;19915;-67
2022/05/06 12:42:17;;;;;;;;;;;18.90;61.10;;;;;;4918177;29;19920;-67
2022/05/06 12:44:43;;;;;;;;;;;18.90;62.00;;;;;;4901861;29;19911;-65
2022/05/06 12:47:13;;;;;;;;;;;18.90;61.30;;;;;;4918498;29;19966;-63
2022/05/06 12:49:41;;;;;;;;;;;19.00;64.40;;;;;;4919141;29;20014;-62
2022/05/06 12:52:11;;;;;;;;;;;19.00;67.70;;;;;;4919443;29;19959;-66
2022/05/06 12:54:37;;;;;;;;;;;19.00;69.20;;;;;;4919239;29;20006;-66
2022/05/06 12:57:03;;;;;;;;;;;19.00;68.40;;;;;;4919344;29;19912;-63
2022/05/06 12:59:29;;;;;;;;;;;19.00;70.70;;;;;;4919255;29;20364;-64
2022/05/06 13:01:55;;;;;;;;;;;19.00;71.70;;;;;;4933232;29;19925;-66
2022/05/06 13:04:20;;;;;;;;;;;18.70;72.00;;;;;;4938145;29;19942;-67
2022/05/06 13:06:46;;;;;;;;;;;18.30;71.90;;;;;;4937535;29;19998;-64
2022/05/06 13:09:12;;;;;;;;;;;18.30;71.90;;;;;;4932600;29;20425;-64
2022/05/06 13:11:38;;;;;;;;;;;18.20;73.30;;;;;;4920716;29;19911;-64
2022/05/06 13:14:03;;;;;;;;;;;18.10;74.80;;;;;;4937699;29;20002;-65
2022/05/06 13:16:29;;;;;;;;;;;18.20;74.30;;;;;;4937457;29;19921;-66
2022/05/06 13:18:54;;;;;;;;;;;18.20;74.30;;;;;;4937789;29;19911;-63
2022/05/06 13:21:20;;;;;;;;;;;18.30;73.70;;;;;;4938385;29;19915;-65
2022/05/06 13:23:46;;;;;;;;;;;18.50;74.50;;;;;;4938343;29;20418;-66
2022/05/06 13:26:11;;;;;;;;;;;18.60;73.80;;;;;;4938369;29;19917;-65
2022/05/06 13:28:37;;;;;;;;;;;18.60;72.60;;;;;;4937723;29;19917;-65
2022/05/06 13:31:03;;;;;;;;;;;18.50;72.80;;;;;;4937974;29;20347;-69
2022/05/06 13:33:31;;;;;;;;;;;18.40;73.40;;;;;;4938050;29;19911;-68
2022/05/06 13:36:00;;;;;;;;;;;18.50;73.20;;;;;;4938184;29;19911;-64
2022/05/06 13:38:25;;;;;;;;;;;18.40;73.30;;;;;;4938002;29;20010;-65
2022/05/06 13:40:51;;;;;;;;;;;18.50;74.80;;;;;;4920664;29;20398;-64
2022/05/06 13:43:17;;;;;;;;;;;18.50;75.00;;;;;;4937533;29;19918;-66
2022/05/06 13:45:42;;;;;;;;;;;18.50;75.60;;;;;;4937684;29;19915;-64
2022/05/06 13:48:09;;;;;;;;;;;18.50;74.90;;;;;;4937277;29;19911;-64
2022/05/06 13:50:35;;;;;;;;;;;18.60;71.50;;;;;;4937642;29;20317;-63
2022/05/06 13:53:00;;;;;;;;;;;18.60;70.50;;;;;;4937705;29;19958;-64
2022/05/06 13:59:03;;;;;;;;;;;18.60;70.30;;;;;;4937748;29;20279;-69
2022/05/06 14:00:56;;;;;;;;;;;18.60;70.40;;;;;;4937277;29;20001;-67
2022/05/06 14:03:23;;;;;;;;;;;18.50;70.00;;;;;;4937429;29;20384;-69
2022/05/06 14:05:49;;;;;;;;;;;18.60;70.50;;;;;;4937229;29;19911;-71
2022/05/06 14:08:15;;;;;;;;;;;18.20;68.10;;;;;;4937039;29;19958;-68
2022/05/06 14:10:41;;;;;;;;;;;18.30;68.70;;;;;;4937156;29;20320;-63
2022/05/06 14:13:06;;;;;;;;;;;18.40;69.40;;;;;;4937418;29;19953;-65
2022/05/06 14:15:32;;;;;;;;;;;18.20;70.00;;;;;;4937477;29;19911;-66
2022/05/06 14:17:57;;;;;;;;;;;18.10;70.60;;;;;;4919897;29;20352;-64
2022/05/06 14:20:23;;;;;;;;;;;17.80;71.30;;;;;;4936728;29;19938;-65
2022/05/06 14:22:48;;;;;;;;;;;17.70;71.30;;;;;;4936823;29;19918;-72
2022/05/06 14:25:16;;;;;;;;;;;17.80;71.70;;;;;;4934878;29;19934;-64
2022/05/06 14:27:42;;;;;;;;;;;17.80;71.40;;;;;;4917978;29;19911;-68
2022/05/06 14:30:09;;;;;;;;;;;17.70;71.40;;;;;;4916340;29;19971;-70
2022/05/06 14:32:34;;;;;;;;;;;17.90;71.50;;;;;;4917857;29;19919;-62
2022/05/06 14:37:49;;;;;;;;;;;17.90;71.40;;;;;;4917808;29;20439;-61
2022/05/06 14:40:17;;;;;;;;;;;18.00;70.30;;;;;;4917799;29;20371;-66
2022/05/06 14:42:42;;;;;;;;;;;17.80;70.40;;;;;;4917727;29;19926;-63
2022/05/06 14:45:08;;;;;;;;;;;17.90;69.90;;;;;;4917746;29;19911;-75
2022/05/06 14:47:34;;;;;;;;;;;17.90;69.90;;;;;;4917295;29;20275;-77
2022/05/06 14:50:00;;;;;;;;;;;18.00;69.50;;;;;;4923007;29;19915;-68
2022/05/06 14:52:25;;;;;;;;;;;18.00;70.10;;;;;;4935865;29;20388;-70
2022/05/06 14:54:51;;;;;;;;;;;18.00;69.50;;;;;;4935973;29;19918;-69
2022/05/06 14:57:17;;;;;;;;;;;18.00;69.60;;;;;;4936043;29;19911;-70
2022/05/06 14:59:42;;;;;;;;;;;17.90;70.50;;;;;;4935786;29;19917;-70